sensor_id;sensor_type;location;lat;lon;timestamp;pressure;altitude;pressure_sealevel;temperature;humidity
7966;BME280;4028;43.272;26.932;2024-02-14T00:01:48;98699.03;;;8.48;100.00
7966;BME280;4028;43.272;26.932;2024-02-14T00:04:14;98704.03;;;8.61;100.00
7966;BME280;4028;43.272;26.932;2024-02-14T00:06:39;98685.03;;;8.38;100.00
7966;BME280;4028;43.272;26.932;2024-02-14T00:09:05;98705.84;;;8.51;100.00
7966;BME280;4028;43.272;26.932;2024-02-14T00:11:32;98707.66;;;8.60;100.00
7966;BME280;4028;43.272;26.932;2024-02-14T00:13:57;98699.19;;;8.56;100.00
7966;BME280;4028;43.272;26.932;2024-02-14T00:16:24;98714.41;;;8.72;100.00
7966;BME280;4028;43.272;26.932;2024-02-14T00:18:49;98722.97;;;8.84;100.00
7966;BME280;4028;43.272;26.932;2024-02-14T00:21:16;98724.78;;;8.93;100.00
7966;BME280;4028;43.272;26.932;2024-02-14T00:23:41;98721.31;;;8.93;100.00
7966;BME280;4028;43.272;26.932;2024-02-14T00:26:07;98625.78;;;8.32;100.00
7966;BME280;4028;43.272;26.932;2024-02-14T00:28:32;98726.72;;;8.91;100.00
7966;BME280;4028;43.272;26.932;2024-02-14T00:30:58;98731.63;;;8.76;100.00
7966;BME280;4028;43.272;26.932;2024-02-14T00:33:23;98703.72;;;8.64;100.00
7966;BME280;4028;43.272;26.932;2024-02-14T00:35:49;98731.63;;;8.76;100.00
7966;BME280;4028;43.272;26.932;2024-02-14T00:38:14;98732.47;;;8.67;100.00
7966;BME280;4028;43.272;26.932;2024-02-14T00:40:40;98738.16;;;8.63;100.00
7966;BME280;4028;43.272;26.932;2024-02-14T00:43:05;98732.91;;;8.53;100.00
7966;BME280;4028;43.272;26.932;2024-02-14T00:45:31;98732.34;;;8.59;100.00
7966;BME280;4028;43.272;26.932;2024-02-14T00:47:56;98735.38;;;8.54;100.00
7966;BME280;4028;43.272;26.932;2024-02-14T00:50:22;98728.59;;;8.32;100.00
7966;BME280;4028;43.272;26.932;2024-02-14T00:52:47;98743.28;;;8.54;100.00
7966;BME280;4028;43.272;26.932;2024-02-14T00:55:13;98755.94;;;8.51;100.00
7966;BME280;4028;43.272;26.932;2024-02-14T00:57:38;98753.84;;;8.35;100.00
7966;BME280;4028;43.272;26.932;2024-02-14T01:00:04;98753.00;;;8.15;100.00
7966;BME280;4028;43.272;26.932;2024-02-14T01:02:31;98765.06;;;8.08;100.00
7966;BME280;4028;43.272;26.932;2024-02-14T01:04:57;98764.09;;;8.28;100.00
7966;BME280;4028;43.272;26.932;2024-02-14T01:07:22;98765.34;;;8.05;100.00
7966;BME280;4028;43.272;26.932;2024-02-14T01:09:48;98759.50;;;7.92;100.00
7966;BME280;4028;43.272;26.932;2024-02-14T01:12:13;98731.56;;;7.60;100.00
7966;BME280;4028;43.272;26.932;2024-02-14T01:14:39;98729.81;;;7.80;100.00
7966;BME280;4028;43.272;26.932;2024-02-14T01:17:04;98774.34;;;8.12;100.00
7966;BME280;4028;43.272;26.932;2024-02-14T01:19:29;98761.03;;;8.23;100.00
7966;BME280;4028;43.272;26.932;2024-02-14T01:21:55;98738.28;;;7.93;100.00
7966;BME280;4028;43.272;26.932;2024-02-14T01:24:22;98770.72;;;7.84;100.00
7966;BME280;4028;43.272;26.932;2024-02-14T01:26:48;98781.63;;;7.70;100.00
7966;BME280;4028;43.272;26.932;2024-02-14T01:29:15;98774.25;;;7.54;100.00
7966;BME280;4028;43.272;26.932;2024-02-14T01:31:42;98776.59;;;7.57;100.00
7966;BME280;4028;43.272;26.932;2024-02-14T01:34:07;98771.22;;;7.59;100.00
7966;BME280;4028;43.272;26.932;2024-02-14T01:36:33;98786.63;;;7.82;100.00
7966;BME280;4028;43.272;26.932;2024-02-14T01:38:58;98787.63;;;7.81;100.00
7966;BME280;4028;43.272;26.932;2024-02-14T01:41:24;98787.06;;;7.88;100.00
7966;BME280;4028;43.272;26.932;2024-02-14T01:43:49;98782.94;;;7.95;100.00
7966;BME280;4028;43.272;26.932;2024-02-14T01:46:15;98733.53;;;7.77;100.00
7966;BME280;4028;43.272;26.932;2024-02-14T01:48:41;98785.56;;;7.95;100.00
7966;BME280;4028;43.272;26.932;2024-02-14T01:51:08;98781.00;;;7.97;100.00
7966;BME280;4028;43.272;26.932;2024-02-14T01:53:37;98784.72;;;7.85;100.00
7966;BME280;4028;43.272;26.932;2024-02-14T01:56:04;98783.75;;;7.86;100.00
7966;BME280;4028;43.272;26.932;2024-02-14T01:58:31;98788.63;;;8.00;100.00
7966;BME280;4028;43.272;26.932;2024-02-14T02:00:57;98791.81;;;8.03;100.00
7966;BME280;4028;43.272;26.932;2024-02-14T02:03:26;98780.13;;;7.87;100.00
7966;BME280;4028;43.272;26.932;2024-02-14T02:05:53;98783.25;;;7.61;100.00
7966;BME280;4028;43.272;26.932;2024-02-14T02:08:20;98787.31;;;7.75;100.00
7966;BME280;4028;43.272;26.932;2024-02-14T02:10:46;98784.59;;;7.86;100.00
7966;BME280;4028;43.272;26.932;2024-02-14T02:13:12;98791.69;;;7.95;100.00
7966;BME280;4028;43.272;26.932;2024-02-14T02:15:37;98797.59;;;7.88;100.00
7966;BME280;4028;43.272;26.932;2024-02-14T02:18:03;98791.66;;;7.86;100.00
7966;BME280;4028;43.272;26.932;2024-02-14T02:20:32;98786.19;;;7.58;100.00
7966;BME280;4028;43.272;26.932;2024-02-14T02:22:58;98792.38;;;7.47;100.00
7966;BME280;4028;43.272;26.932;2024-02-14T02:25:24;98787.41;;;7.23;100.00
7966;BME280;4028;43.272;26.932;2024-02-14T02:27:51;98802.03;;;7.16;100.00
7966;BME280;4028;43.272;26.932;2024-02-14T02:30:16;98803.78;;;7.27;100.00
7966;BME280;4028;43.272;26.932;2024-02-14T02:32:42;98813.72;;;7.23;100.00
7966;BME280;4028;43.272;26.932;2024-02-14T02:35:08;98811.25;;;7.22;100.00
7966;BME280;4028;43.272;26.932;2024-02-14T02:37:35;98817.34;;;7.01;100.00
7966;BME280;4028;43.272;26.932;2024-02-14T02:40:00;98806.31;;;7.08;100.00
7966;BME280;4028;43.272;26.932;2024-02-14T02:42:26;98821.19;;;7.18;100.00
7966;BME280;4028;43.272;26.932;2024-02-14T02:44:52;98825.44;;;7.40;100.00
7966;BME280;4028;43.272;26.932;2024-02-14T02:47:17;98831.63;;;7.60;100.00
7966;BME280;4028;43.272;26.932;2024-02-14T02:49:44;98833.63;;;7.68;100.00
7966;BME280;4028;43.272;26.932;2024-02-14T02:52:12;98822.00;;;7.80;100.00
7966;BME280;4028;43.272;26.932;2024-02-14T02:54:38;98830.59;;;7.82;100.00
7966;BME280;4028;43.272;26.932;2024-02-14T02:57:07;98800.06;;;7.70;100.00
7966;BME280;4028;43.272;26.932;2024-02-14T02:59:33;98841.56;;;7.87;100.00
7966;BME280;4028;43.272;26.932;2024-02-14T03:01:59;98838.63;;;7.80;100.00
7966;BME280;4028;43.272;26.932;2024-02-14T03:04:24;98844.88;;;7.79;100.00
7966;BME280;4028;43.272;26.932;2024-02-14T03:06:50;98852.31;;;7.65;100.00
7966;BME280;4028;43.272;26.932;2024-02-14T03:09:15;98839.72;;;7.38;100.00
7966;BME280;4028;43.272;26.932;2024-02-14T03:11:46;98851.16;;;7.58;100.00
7966;BME280;4028;43.272;26.932;2024-02-14T03:14:12;98850.75;;;7.62;100.00
7966;BME280;4028;43.272;26.932;2024-02-14T03:16:38;98851.88;;;7.60;100.00
7966;BME280;4028;43.272;26.932;2024-02-14T03:19:04;98856.44;;;7.67;100.00
7966;BME280;4028;43.272;26.932;2024-02-14T03:21:33;98858.53;;;7.64;100.00
7966;BME280;4028;43.272;26.932;2024-02-14T03:24:03;98861.16;;;7.64;100.00
7966;BME280;4028;43.272;26.932;2024-02-14T03:26:30;98860.06;;;7.66;100.00
7966;BME280;4028;43.272;26.932;2024-02-14T03:28:59;98867.72;;;7.69;100.00
7966;BME280;4028;43.272;26.932;2024-02-14T03:31:25;98868.97;;;7.44;100.00
7966;BME280;4028;43.272;26.932;2024-02-14T03:33:51;98866.78;;;7.49;100.00
7966;BME280;4028;43.272;26.932;2024-02-14T03:36:16;98881.75;;;7.49;100.00
7966;BME280;4028;43.272;26.932;2024-02-14T03:38:42;98867.13;;;7.35;100.00
7966;BME280;4028;43.272;26.932;2024-02-14T03:41:07;98866.09;;;7.26;100.00
7966;BME280;4028;43.272;26.932;2024-02-14T03:43:33;98881.25;;;7.34;100.00
7966;BME280;4028;43.272;26.932;2024-02-14T03:45:58;98879.97;;;7.28;100.00
7966;BME280;4028;43.272;26.932;2024-02-14T03:48:24;98881.47;;;7.52;100.00
7966;BME280;4028;43.272;26.932;2024-02-14T03:50:49;98881.34;;;7.53;100.00
7966;BME280;4028;43.272;26.932;2024-02-14T03:53:15;98881.75;;;7.49;100.00
7966;BME280;4028;43.272;26.932;2024-02-14T03:55:41;98868.53;;;7.18;100.00
7966;BME280;4028;43.272;26.932;2024-02-14T03:58:06;98879.97;;;7.28;100.00
7966;BME280;4028;43.272;26.932;2024-02-14T04:00:34;98889.88;;;7.46;100.00
7966;BME280;4028;43.272;26.932;2024-02-14T04:03:01;98876.63;;;7.57;100.00
7966;BME280;4028;43.272;26.932;2024-02-14T04:05:28;98889.00;;;7.36;100.00
7966;BME280;4028;43.272;26.932;2024-02-14T04:07:55;98890.09;;;7.54;100.00
7966;BME280;4028;43.272;26.932;2024-02-14T04:10:21;98889.50;;;7.50;100.00
7966;BME280;4028;43.272;26.932;2024-02-14T04:12:47;98889.66;;;7.49;100.00
7966;BME280;4028;43.272;26.932;2024-02-14T04:15:12;98895.06;;;7.57;100.00
7966;BME280;4028;43.272;26.932;2024-02-14T04:17:39;98894.69;;;7.62;100.00
7966;BME280;4028;43.272;26.932;2024-02-14T04:20:05;98903.06;;;7.46;100.00
7966;BME280;4028;43.272;26.932;2024-02-14T04:22:31;98868.34;;;7.31;100.00
7966;BME280;4028;43.272;26.932;2024-02-14T04:24:56;98911.28;;;7.52;100.00
7966;BME280;4028;43.272;26.932;2024-02-14T04:27:22;98910.44;;;7.52;100.00
7966;BME280;4028;43.272;26.932;2024-02-14T04:29:47;98911.47;;;7.40;100.00
7966;BME280;4028;43.272;26.932;2024-02-14T04:32:14;98915.06;;;7.39;100.00
7966;BME280;4028;43.272;26.932;2024-02-14T04:34:39;98920.19;;;7.40;100.00
7966;BME280;4028;43.272;26.932;2024-02-14T04:37:06;98923.72;;;7.50;100.00
7966;BME280;4028;43.272;26.932;2024-02-14T04:39:41;98915.78;;;7.41;100.00
7966;BME280;4028;43.272;26.932;2024-02-14T04:42:07;98928.03;;;7.51;100.00
7966;BME280;4028;43.272;26.932;2024-02-14T04:44:33;98894.72;;;7.41;100.00
7966;BME280;4028;43.272;26.932;2024-02-14T04:46:59;98840.16;;;7.01;100.00
7966;BME280;4028;43.272;26.932;2024-02-14T04:49:25;98939.66;;;7.49;100.00
7966;BME280;4028;43.272;26.932;2024-02-14T04:51:52;98918.28;;;7.21;100.00
7966;BME280;4028;43.272;26.932;2024-02-14T04:54:18;98934.47;;;7.17;100.00
7966;BME280;4028;43.272;26.932;2024-02-14T04:56:44;98949.88;;;7.42;100.00
7966;BME280;4028;43.272;26.932;2024-02-14T04:59:10;98945.00;;;7.17;100.00
7966;BME280;4028;43.272;26.932;2024-02-14T05:01:36;98950.88;;;7.30;100.00
7966;BME280;4028;43.272;26.932;2024-02-14T05:04:02;98956.28;;;7.28;100.00
7966;BME280;4028;43.272;26.932;2024-02-14T05:06:28;98960.44;;;7.31;100.00
7966;BME280;4028;43.272;26.932;2024-02-14T05:08:53;98966.97;;;7.48;100.00
7966;BME280;4028;43.272;26.932;2024-02-14T05:11:19;98961.88;;;7.35;100.00
7966;BME280;4028;43.272;26.932;2024-02-14T05:13:44;98956.16;;;7.30;100.00
7966;BME280;4028;43.272;26.932;2024-02-14T05:16:11;98971.44;;;7.36;100.00
7966;BME280;4028;43.272;26.932;2024-02-14T05:18:37;98975.63;;;7.39;100.00
7966;BME280;4028;43.272;26.932;2024-02-14T05:21:07;98977.53;;;7.37;100.00
7966;BME280;4028;43.272;26.932;2024-02-14T05:23:33;98981.50;;;7.52;100.00
7966;BME280;4028;43.272;26.932;2024-02-14T05:26:00;98985.78;;;7.43;100.00
7966;BME280;4028;43.272;26.932;2024-02-14T05:28:27;98978.69;;;7.23;100.00
7966;BME280;4028;43.272;26.932;2024-02-14T05:30:53;98987.88;;;7.28;100.00
7966;BME280;4028;43.272;26.932;2024-02-14T05:33:19;98988.66;;;7.40;100.00
7966;BME280;4028;43.272;26.932;2024-02-14T05:35:51;98988.31;;;7.34;100.00
7966;BME280;4028;43.272;26.932;2024-02-14T05:38:17;98996.53;;;7.40;100.00
7966;BME280;4028;43.272;26.932;2024-02-14T05:40:47;98999.00;;;7.21;100.00
7966;BME280;4028;43.272;26.932;2024-02-14T05:43:13;98989.50;;;7.09;100.00
7966;BME280;4028;43.272;26.932;2024-02-14T05:45:39;99009.47;;;7.11;100.00
7966;BME280;4028;43.272;26.932;2024-02-14T05:48:05;98988.88;;;6.84;100.00
7966;BME280;4028;43.272;26.932;2024-02-14T05:50:31;99006.25;;;7.08;100.00
7966;BME280;4028;43.272;26.932;2024-02-14T05:52:56;99022.25;;;7.16;100.00
7966;BME280;4028;43.272;26.932;2024-02-14T05:55:25;99019.81;;;6.92;100.00
7966;BME280;4028;43.272;26.932;2024-02-14T05:57:51;99018.25;;;6.89;100.00
7966;BME280;4028;43.272;26.932;2024-02-14T06:00:18;99036.97;;;7.18;100.00
7966;BME280;4028;43.272;26.932;2024-02-14T06:02:46;99048.41;;;7.28;100.00
7966;BME280;4028;43.272;26.932;2024-02-14T06:05:13;99050.66;;;7.33;100.00
7966;BME280;4028;43.272;26.932;2024-02-14T06:07:38;99041.84;;;7.55;100.00
7966;BME280;4028;43.272;26.932;2024-02-14T06:10:04;99038.88;;;7.69;100.00
7966;BME280;4028;43.272;26.932;2024-02-14T06:12:32;99052.66;;;7.73;100.00
7966;BME280;4028;43.272;26.932;2024-02-14T06:14:57;99052.69;;;7.82;100.00
7966;BME280;4028;43.272;26.932;2024-02-14T06:17:23;99055.97;;;7.75;100.00
7966;BME280;4028;43.272;26.932;2024-02-14T06:19:48;99062.06;;;7.75;100.00
7966;BME280;4028;43.272;26.932;2024-02-14T06:22:14;99058.38;;;7.78;100.00
7966;BME280;4028;43.272;26.932;2024-02-14T06:24:39;99066.13;;;7.79;100.00
7966;BME280;4028;43.272;26.932;2024-02-14T06:27:06;99067.94;;;7.47;100.00
7966;BME280;4028;43.272;26.932;2024-02-14T06:29:31;99078.94;;;7.52;100.00
7966;BME280;4028;43.272;26.932;2024-02-14T06:31:57;99088.34;;;7.66;100.00
7966;BME280;4028;43.272;26.932;2024-02-14T06:34:22;99081.91;;;7.59;100.00
7966;BME280;4028;43.272;26.932;2024-02-14T06:36:48;99081.41;;;7.33;100.00
7966;BME280;4028;43.272;26.932;2024-02-14T06:39:13;99085.25;;;7.28;100.00
7966;BME280;4028;43.272;26.932;2024-02-14T06:41:39;99082.03;;;7.25;100.00
7966;BME280;4028;43.272;26.932;2024-02-14T06:44:05;99073.53;;;7.21;100.00
7966;BME280;4028;43.272;26.932;2024-02-14T06:46:30;99088.94;;;7.37;100.00
7966;BME280;4028;43.272;26.932;2024-02-14T06:48:56;99090.69;;;7.48;100.00
7966;BME280;4028;43.272;26.932;2024-02-14T06:51:22;99092.19;;;7.62;100.00
7966;BME280;4028;43.272;26.932;2024-02-14T06:53:49;99057.69;;;7.44;100.00
7966;BME280;4028;43.272;26.932;2024-02-14T06:56:15;99094.94;;;7.60;100.00
7966;BME280;4028;43.272;26.932;2024-02-14T06:58:40;99098.03;;;7.65;100.00
7966;BME280;4028;43.272;26.932;2024-02-14T07:01:06;99103.91;;;7.69;100.00
7966;BME280;4028;43.272;26.932;2024-02-14T07:03:31;99066.41;;;7.44;100.00
7966;BME280;4028;43.272;26.932;2024-02-14T07:05:57;99113.97;;;7.64;100.00
7966;BME280;4028;43.272;26.932;2024-02-14T07:08:23;99112.22;;;7.42;100.00
7966;BME280;4028;43.272;26.932;2024-02-14T07:10:50;99122.66;;;7.43;100.00
7966;BME280;4028;43.272;26.932;2024-02-14T07:13:16;99122.94;;;7.61;100.00
7966;BME280;4028;43.272;26.932;2024-02-14T07:15:42;99124.66;;;7.51;100.00
7966;BME280;4028;43.272;26.932;2024-02-14T07:18:08;99126.31;;;7.52;100.00
7966;BME280;4028;43.272;26.932;2024-02-14T07:20:35;99133.06;;;7.45;100.00
7966;BME280;4028;43.272;26.932;2024-02-14T07:23:00;99136.91;;;7.41;100.00
7966;BME280;4028;43.272;26.932;2024-02-14T07:25:27;99130.78;;;7.40;100.00
7966;BME280;4028;43.272;26.932;2024-02-14T07:27:52;99139.94;;;7.57;100.00
7966;BME280;4028;43.272;26.932;2024-02-14T07:30:18;99146.28;;;7.66;100.00
7966;BME280;4028;43.272;26.932;2024-02-14T07:32:44;99149.66;;;7.56;100.00
7966;BME280;4028;43.272;26.932;2024-02-14T07:35:10;99155.66;;;7.59;100.00
7966;BME280;4028;43.272;26.932;2024-02-14T07:37:36;99150.94;;;7.62;100.00
7966;BME280;4028;43.272;26.932;2024-02-14T07:40:02;99149.50;;;7.69;100.00
7966;BME280;4028;43.272;26.932;2024-02-14T07:42:28;99151.13;;;7.81;100.00
7966;BME280;4028;43.272;26.932;2024-02-14T07:44:53;99162.34;;;7.63;100.00
7966;BME280;4028;43.272;26.932;2024-02-14T07:47:21;99160.72;;;7.39;100.00
7966;BME280;4028;43.272;26.932;2024-02-14T07:49:46;99161.31;;;7.43;100.00
7966;BME280;4028;43.272;26.932;2024-02-14T07:52:12;99158.91;;;7.40;100.00
7966;BME280;4028;43.272;26.932;2024-02-14T07:54:37;99161.19;;;7.44;100.00
7966;BME280;4028;43.272;26.932;2024-02-14T07:57:03;99169.91;;;7.45;100.00
7966;BME280;4028;43.272;26.932;2024-02-14T07:59:28;99164.78;;;7.43;100.00
7966;BME280;4028;43.272;26.932;2024-02-14T08:01:54;99174.34;;;7.44;100.00
7966;BME280;4028;43.272;26.932;2024-02-14T08:04:19;99163.00;;;7.44;100.00
7966;BME280;4028;43.272;26.932;2024-02-14T08:06:46;99155.28;;;7.52;100.00
7966;BME280;4028;43.272;26.932;2024-02-14T08:09:14;99175.88;;;7.58;100.00
7966;BME280;4028;43.272;26.932;2024-02-14T08:11:40;99177.88;;;7.66;100.00
7966;BME280;4028;43.272;26.932;2024-02-14T08:14:05;99175.06;;;7.58;100.00
7966;BME280;4028;43.272;26.932;2024-02-14T08:16:31;99182.56;;;7.62;100.00
7966;BME280;4028;43.272;26.932;2024-02-14T08:18:57;99179.53;;;7.78;100.00
7966;BME280;4028;43.272;26.932;2024-02-14T08:21:27;99178.47;;;7.69;100.00
7966;BME280;4028;43.272;26.932;2024-02-14T08:23:54;99182.72;;;7.49;100.00
7966;BME280;4028;43.272;26.932;2024-02-14T08:26:23;99191.53;;;7.60;100.00
7966;BME280;4028;43.272;26.932;2024-02-14T08:28:49;99189.00;;;7.69;100.00
7966;BME280;4028;43.272;26.932;2024-02-14T08:31:15;99193.16;;;7.83;100.00
7966;BME280;4028;43.272;26.932;2024-02-14T08:33:41;99181.66;;;7.84;100.00
7966;BME280;4028;43.272;26.932;2024-02-14T08:36:06;99188.09;;;7.91;100.00
7966;BME280;4028;43.272;26.932;2024-02-14T08:38:33;99199.00;;;7.87;100.00
7966;BME280;4028;43.272;26.932;2024-02-14T08:41:00;99191.97;;;7.76;100.00
7966;BME280;4028;43.272;26.932;2024-02-14T08:43:26;99171.94;;;7.52;100.00
7966;BME280;4028;43.272;26.932;2024-02-14T08:45:51;99191.13;;;7.75;100.00
7966;BME280;4028;43.272;26.932;2024-02-14T08:48:17;99214.91;;;7.96;100.00
7966;BME280;4028;43.272;26.932;2024-02-14T08:50:42;99129.94;;;7.51;100.00
7966;BME280;4028;43.272;26.932;2024-02-14T08:53:08;99208.34;;;7.91;100.00
7966;BME280;4028;43.272;26.932;2024-02-14T08:55:35;99212.09;;;8.09;100.00
7966;BME280;4028;43.272;26.932;2024-02-14T08:58:01;99206.03;;;8.29;100.00
7966;BME280;4028;43.272;26.932;2024-02-14T09:00:27;99220.03;;;8.30;100.00
7966;BME280;4028;43.272;26.932;2024-02-14T09:02:52;99223.97;;;8.36;100.00
7966;BME280;4028;43.272;26.932;2024-02-14T09:05:18;99225.84;;;8.13;100.00
7966;BME280;4028;43.272;26.932;2024-02-14T09:07:44;99223.59;;;8.08;100.00
7966;BME280;4028;43.272;26.932;2024-02-14T09:10:10;99230.84;;;7.95;100.00
7966;BME280;4028;43.272;26.932;2024-02-14T09:12:38;99222.06;;;8.05;100.00
7966;BME280;4028;43.272;26.932;2024-02-14T09:15:04;99221.31;;;8.03;100.00
7966;BME280;4028;43.272;26.932;2024-02-14T09:17:30;99221.09;;;8.06;100.00
7966;BME280;4028;43.272;26.932;2024-02-14T09:19:56;99224.88;;;8.14;100.00
7966;BME280;4028;43.272;26.932;2024-02-14T09:22:21;99219.75;;;8.12;100.00
7966;BME280;4028;43.272;26.932;2024-02-14T09:24:47;99215.97;;;8.26;100.00
7966;BME280;4028;43.272;26.932;2024-02-14T09:27:13;99193.38;;;8.12;100.00
7966;BME280;4028;43.272;26.932;2024-02-14T09:29:39;99215.31;;;8.33;100.00
7966;BME280;4028;43.272;26.932;2024-02-14T09:32:05;99217.25;;;8.31;100.00
7966;BME280;4028;43.272;26.932;2024-02-14T09:34:30;99218.41;;;8.18;100.00
7966;BME280;4028;43.272;26.932;2024-02-14T09:36:56;99213.03;;;8.19;100.00
7966;BME280;4028;43.272;26.932;2024-02-14T09:39:24;99211.25;;;8.41;100.00
7966;BME280;4028;43.272;26.932;2024-02-14T09:41:54;99205.00;;;8.42;100.00
7966;BME280;4028;43.272;26.932;2024-02-14T09:44:22;99207.72;;;8.51;100.00
7966;BME280;4028;43.272;26.932;2024-02-14T09:46:49;99206.06;;;8.50;100.00
7966;BME280;4028;43.272;26.932;2024-02-14T09:49:16;99197.41;;;8.48;100.00
7966;BME280;4028;43.272;26.932;2024-02-14T09:51:44;99198.06;;;8.41;100.00
7966;BME280;4028;43.272;26.932;2024-02-14T09:54:10;99194.97;;;8.36;100.00
7966;BME280;4028;43.272;26.932;2024-02-14T09:56:36;99193.78;;;8.40;100.00
7966;BME280;4028;43.272;26.932;2024-02-14T09:59:02;99201.28;;;8.65;100.00
7966;BME280;4028;43.272;26.932;2024-02-14T10:01:28;99200.75;;;8.71;100.00
7966;BME280;4028;43.272;26.932;2024-02-14T10:03:54;99190.97;;;8.62;100.00
7966;BME280;4028;43.272;26.932;2024-02-14T10:06:21;99187.66;;;8.60;100.00
7966;BME280;4028;43.272;26.932;2024-02-14T10:08:50;99185.03;;;8.70;100.00
7966;BME280;4028;43.272;26.932;2024-02-14T10:11:18;99189.47;;;8.69;100.00
7966;BME280;4028;43.272;26.932;2024-02-14T10:13:47;99176.63;;;8.76;100.00
7966;BME280;4028;43.272;26.932;2024-02-14T10:16:14;99166.56;;;8.91;100.00
7966;BME280;4028;43.272;26.932;2024-02-14T10:18:39;99171.44;;;9.05;100.00
7966;BME280;4028;43.272;26.932;2024-02-14T10:21:06;99175.75;;;8.96;100.00
7966;BME280;4028;43.272;26.932;2024-02-14T10:23:31;99173.22;;;8.95;100.00
7966;BME280;4028;43.272;26.932;2024-02-14T10:25:59;99172.78;;;8.90;100.00
7966;BME280;4028;43.272;26.932;2024-02-14T10:28:24;99177.03;;;8.71;100.00
7966;BME280;4028;43.272;26.932;2024-02-14T10:30:50;99175.53;;;8.57;100.00
7966;BME280;4028;43.272;26.932;2024-02-14T10:33:16;99177.47;;;8.76;100.00
7966;BME280;4028;43.272;26.932;2024-02-14T10:35:42;99179.44;;;8.84;100.00
7966;BME280;4028;43.272;26.932;2024-02-14T10:38:08;99180.16;;;8.86;100.00
7966;BME280;4028;43.272;26.932;2024-02-14T10:40:35;99178.88;;;8.90;100.00
7966;BME280;4028;43.272;26.932;2024-02-14T10:43:02;99144.56;;;8.80;100.00
7966;BME280;4028;43.272;26.932;2024-02-14T10:45:28;99187.72;;;9.10;100.00
7966;BME280;4028;43.272;26.932;2024-02-14T10:47:53;99182.34;;;9.11;100.00
7966;BME280;4028;43.272;26.932;2024-02-14T10:50:21;99190.56;;;9.28;100.00
7966;BME280;4028;43.272;26.932;2024-02-14T10:52:48;99187.53;;;9.32;100.00
7966;BME280;4028;43.272;26.932;2024-02-14T10:55:16;99154.09;;;9.02;100.00
7966;BME280;4028;43.272;26.932;2024-02-14T10:57:43;99187.63;;;9.21;100.00
7966;BME280;4028;43.272;26.932;2024-02-14T11:00:12;99187.03;;;9.08;100.00
7966;BME280;4028;43.272;26.932;2024-02-14T11:02:40;99188.91;;;8.87;100.00
7966;BME280;4028;43.272;26.932;2024-02-14T11:05:11;99191.69;;;8.95;100.00
7966;BME280;4028;43.272;26.932;2024-02-14T11:07:44;99181.31;;;8.72;100.00
7966;BME280;4028;43.272;26.932;2024-02-14T11:10:13;99190.75;;;8.75;100.00
7966;BME280;4028;43.272;26.932;2024-02-14T11:12:40;99188.72;;;8.78;100.00
7966;BME280;4028;43.272;26.932;2024-02-14T11:15:16;99173.72;;;8.79;100.00
7966;BME280;4028;43.272;26.932;2024-02-14T11:17:46;99190.75;;;8.65;100.00
7966;BME280;4028;43.272;26.932;2024-02-14T11:22:39;99193.22;;;8.67;100.00
7966;BME280;4028;43.272;26.932;2024-02-14T11:25:14;99199.56;;;8.22;100.00
7966;BME280;4028;43.272;26.932;2024-02-14T11:27:45;99193.53;;;8.11;100.00
7966;BME280;4028;43.272;26.932;2024-02-14T11:30:11;99204.66;;;8.35;100.00
7966;BME280;4028;43.272;26.932;2024-02-14T11:32:37;99196.41;;;8.40;100.00
7966;BME280;4028;43.272;26.932;2024-02-14T11:35:11;99200.72;;;8.41;100.00
7966;BME280;4028;43.272;26.932;2024-02-14T11:37:36;99210.66;;;8.37;100.00
7966;BME280;4028;43.272;26.932;2024-02-14T11:40:02;99198.91;;;8.41;100.00
7966;BME280;4028;43.272;26.932;2024-02-14T11:42:28;99182.53;;;8.26;100.00
7966;BME280;4028;43.272;26.932;2024-02-14T11:44:53;99205.25;;;8.39;100.00
7966;BME280;4028;43.272;26.932;2024-02-14T11:47:22;99201.03;;;8.47;100.00
7966;BME280;4028;43.272;26.932;2024-02-14T11:49:48;99212.38;;;8.27;100.00
7966;BME280;4028;43.272;26.932;2024-02-14T11:52:13;99168.94;;;7.89;100.00
7966;BME280;4028;43.272;26.932;2024-02-14T11:54:39;99210.25;;;8.21;100.00
7966;BME280;4028;43.272;26.932;2024-02-14T11:57:05;99205.22;;;8.18;100.00
7966;BME280;4028;43.272;26.932;2024-02-14T11:59:34;99215.53;;;8.21;100.00
7966;BME280;4028;43.272;26.932;2024-02-14T12:01:59;99210.38;;;8.19;100.00
7966;BME280;4028;43.272;26.932;2024-02-14T12:04:27;99209.94;;;8.14;100.00
7966;BME280;4028;43.272;26.932;2024-02-14T12:06:53;99212.59;;;8.03;100.00
7966;BME280;4028;43.272;26.932;2024-02-14T12:09:20;99208.03;;;8.05;100.00
7966;BME280;4028;43.272;26.932;2024-02-14T12:11:46;99209.34;;;8.11;100.00
7966;BME280;4028;43.272;26.932;2024-02-14T12:14:12;99208.97;;;8.15;100.00
7966;BME280;4028;43.272;26.932;2024-02-14T12:16:39;99209.41;;;8.20;100.00
7966;BME280;4028;43.272;26.932;2024-02-14T12:19:14;99210.16;;;8.11;100.00
7966;BME280;4028;43.272;26.932;2024-02-14T12:21:41;99210.38;;;8.19;100.00
7966;BME280;4028;43.272;26.932;2024-02-14T12:24:08;99211.84;;;8.12;100.00
7966;BME280;4028;43.272;26.932;2024-02-14T12:26:35;99219.59;;;8.25;100.00
7966;BME280;4028;43.272;26.932;2024-02-14T12:29:02;99216.50;;;8.20;100.00
7966;BME280;4028;43.272;26.932;2024-02-14T12:31:29;99207.31;;;8.35;100.00
7966;BME280;4028;43.272;26.932;2024-02-14T12:33:57;99220.88;;;8.30;100.00
7966;BME280;4028;43.272;26.932;2024-02-14T12:36:28;99210.88;;;8.34;100.00
7966;BME280;4028;43.272;26.932;2024-02-14T12:38:56;99219.75;;;8.33;100.00
7966;BME280;4028;43.272;26.932;2024-02-14T12:41:22;99217.25;;;8.31;100.00
7966;BME280;4028;43.272;26.932;2024-02-14T12:43:55;99217.44;;;8.51;100.00
7966;BME280;4028;43.272;26.932;2024-02-14T12:46:21;99216.84;;;8.47;100.00
7966;BME280;4028;43.272;26.932;2024-02-14T12:48:46;99211.25;;;8.41;100.00
7966;BME280;4028;43.272;26.932;2024-02-14T12:51:13;99227.22;;;8.28;100.00
7966;BME280;4028;43.272;26.932;2024-02-14T12:53:39;99225.75;;;8.03;100.00
7966;BME280;4028;43.272;26.932;2024-02-14T12:56:06;99219.75;;;8.12;100.00
7966;BME280;4028;43.272;26.932;2024-02-14T12:58:33;99220.66;;;8.22;100.00
7966;BME280;4028;43.272;26.932;2024-02-14T13:00:58;99219.75;;;8.12;100.00
7966;BME280;4028;43.272;26.932;2024-02-14T13:03:24;99210.22;;;8.00;100.00
7966;BME280;4028;43.272;26.932;2024-02-14T13:05:50;99216.66;;;8.07;100.00
7966;BME280;4028;43.272;26.932;2024-02-14T13:08:16;99226.22;;;8.08;100.00